sensor_id;sensor_type;location;lat;lon;timestamp;P1;durP1;ratioP1;P2;durP2;ratioP2
35693;SDS011;21812;55.536;37.664;2023-05-23T00:01:42;17.88;;;8.40;;
35693;SDS011;21812;55.536;37.664;2023-05-23T00:04:09;16.10;;;7.03;;
35693;SDS011;21812;55.536;37.664;2023-05-23T00:06:41;12.93;;;6.75;;
35693;SDS011;21812;55.536;37.664;2023-05-23T00:09:14;16.85;;;7.85;;
35693;SDS011;21812;55.536;37.664;2023-05-23T00:11:41;16.25;;;7.40;;
35693;SDS011;21812;55.536;37.664;2023-05-23T00:14:13;15.25;;;8.32;;
35693;SDS011;21812;55.536;37.664;2023-05-23T00:16:40;16.50;;;7.97;;
35693;SDS011;21812;55.536;37.664;2023-05-23T00:19:09;16.95;;;8.15;;
35693;SDS011;21812;55.536;37.664;2023-05-23T00:21:35;17.25;;;7.30;;
35693;SDS011;21812;55.536;37.664;2023-05-23T00:24:01;11.70;;;7.18;;
35693;SDS011;21812;55.536;37.664;2023-05-23T00:26:27;19.85;;;8.02;;
35693;SDS011;21812;55.536;37.664;2023-05-23T00:28:55;13.15;;;7.75;;
35693;SDS011;21812;55.536;37.664;2023-05-23T00:31:22;13.15;;;8.48;;
35693;SDS011;21812;55.536;37.664;2023-05-23T00:33:48;13.82;;;7.93;;
35693;SDS011;21812;55.536;37.664;2023-05-23T00:36:13;24.40;;;8.35;;
35693;SDS011;21812;55.536;37.664;2023-05-23T00:38:39;13.50;;;7.50;;
35693;SDS011;21812;55.536;37.664;2023-05-23T00:41:05;15.45;;;7.78;;
35693;SDS011;21812;55.536;37.664;2023-05-23T00:43:31;17.50;;;8.27;;
35693;SDS011;21812;55.536;37.664;2023-05-23T00:45:56;13.05;;;8.82;;
35693;SDS011;21812;55.536;37.664;2023-05-23T00:48:23;18.50;;;8.30;;
35693;SDS011;21812;55.536;37.664;2023-05-23T00:50:50;15.32;;;7.68;;
35693;SDS011;21812;55.536;37.664;2023-05-23T00:53:16;15.15;;;6.70;;
35693;SDS011;21812;55.536;37.664;2023-05-23T00:55:43;12.95;;;7.85;;
35693;SDS011;21812;55.536;37.664;2023-05-23T00:58:09;13.93;;;8.50;;
35693;SDS011;21812;55.536;37.664;2023-05-23T01:00:35;14.68;;;8.43;;
35693;SDS011;21812;55.536;37.664;2023-05-23T01:03:03;11.60;;;8.45;;
35693;SDS011;21812;55.536;37.664;2023-05-23T01:05:32;13.18;;;7.68;;
35693;SDS011;21812;55.536;37.664;2023-05-23T01:07:58;15.13;;;8.80;;
35693;SDS011;21812;55.536;37.664;2023-05-23T01:10:24;9.88;;;7.20;;
35693;SDS011;21812;55.536;37.664;2023-05-23T01:12:59;16.77;;;8.35;;
35693;SDS011;21812;55.536;37.664;2023-05-23T01:15:49;13.57;;;8.18;;
35693;SDS011;21812;55.536;37.664;2023-05-23T01:18:31;15.18;;;7.35;;
35693;SDS011;21812;55.536;37.664;2023-05-23T01:21:05;10.65;;;7.25;;
35693;SDS011;21812;55.536;37.664;2023-05-23T01:23:44;19.83;;;8.82;;
35693;SDS011;21812;55.536;37.664;2023-05-23T01:29:14;17.17;;;8.63;;
35693;SDS011;21812;55.536;37.664;2023-05-23T01:31:48;15.63;;;8.70;;
35693;SDS011;21812;55.536;37.664;2023-05-23T01:34:18;13.48;;;8.18;;
35693;SDS011;21812;55.536;37.664;2023-05-23T01:36:48;17.50;;;9.57;;
35693;SDS011;21812;55.536;37.664;2023-05-23T01:39:15;16.88;;;9.07;;
35693;SDS011;21812;55.536;37.664;2023-05-23T01:41:40;15.73;;;9.95;;
35693;SDS011;21812;55.536;37.664;2023-05-23T01:44:06;18.73;;;10.23;;
35693;SDS011;21812;55.536;37.664;2023-05-23T01:46:33;16.02;;;9.00;;
35693;SDS011;21812;55.536;37.664;2023-05-23T01:49:00;17.33;;;9.23;;
35693;SDS011;21812;55.536;37.664;2023-05-23T01:51:30;15.32;;;9.27;;
35693;SDS011;21812;55.536;37.664;2023-05-23T01:53:58;15.27;;;9.05;;
35693;SDS011;21812;55.536;37.664;2023-05-23T01:56:26;20.55;;;9.43;;
35693;SDS011;21812;55.536;37.664;2023-05-23T01:58:52;12.00;;;8.68;;
35693;SDS011;21812;55.536;37.664;2023-05-23T02:01:19;17.45;;;10.13;;
35693;SDS011;21812;55.536;37.664;2023-05-23T02:03:45;17.73;;;9.68;;
35693;SDS011;21812;55.536;37.664;2023-05-23T02:06:11;17.10;;;9.45;;
35693;SDS011;21812;55.536;37.664;2023-05-23T02:08:37;24.38;;;10.43;;
35693;SDS011;21812;55.536;37.664;2023-05-23T02:11:03;19.05;;;6.72;;
35693;SDS011;21812;55.536;37.664;2023-05-23T02:13:29;15.20;;;8.77;;
35693;SDS011;21812;55.536;37.664;2023-05-23T02:15:56;16.27;;;6.72;;
35693;SDS011;21812;55.536;37.664;2023-05-23T02:18:22;20.35;;;10.23;;
35693;SDS011;21812;55.536;37.664;2023-05-23T02:21:10;33.80;;;11.45;;
35693;SDS011;21812;55.536;37.664;2023-05-23T02:23:36;10.27;;;7.00;;
35693;SDS011;21812;55.536;37.664;2023-05-23T02:26:02;12.95;;;8.20;;
35693;SDS011;21812;55.536;37.664;2023-05-23T02:28:28;17.08;;;9.75;;
35693;SDS011;21812;55.536;37.664;2023-05-23T02:30:54;21.35;;;11.23;;
35693;SDS011;21812;55.536;37.664;2023-05-23T02:33:20;19.58;;;10.02;;
35693;SDS011;21812;55.536;37.664;2023-05-23T02:35:46;19.48;;;9.98;;
35693;SDS011;21812;55.536;37.664;2023-05-23T02:38:14;17.38;;;10.38;;
35693;SDS011;21812;55.536;37.664;2023-05-23T02:40:40;16.15;;;9.05;;
35693;SDS011;21812;55.536;37.664;2023-05-23T02:43:06;14.55;;;8.30;;
35693;SDS011;21812;55.536;37.664;2023-05-23T02:45:32;13.15;;;8.18;;
35693;SDS011;21812;55.536;37.664;2023-05-23T02:47:58;16.08;;;7.75;;
35693;SDS011;21812;55.536;37.664;2023-05-23T02:50:24;15.23;;;7.97;;
35693;SDS011;21812;55.536;37.664;2023-05-23T02:52:50;16.63;;;9.27;;
35693;SDS011;21812;55.536;37.664;2023-05-23T02:55:16;18.95;;;11.18;;
35693;SDS011;21812;55.536;37.664;2023-05-23T02:57:45;11.02;;;6.32;;
35693;SDS011;21812;55.536;37.664;2023-05-23T03:00:11;10.10;;;7.80;;
35693;SDS011;21812;55.536;37.664;2023-05-23T03:02:39;16.95;;;8.07;;
35693;SDS011;21812;55.536;37.664;2023-05-23T03:05:06;15.68;;;9.73;;
35693;SDS011;21812;55.536;37.664;2023-05-23T03:07:32;21.92;;;12.82;;
35693;SDS011;21812;55.536;37.664;2023-05-23T03:09:59;11.90;;;8.68;;
35693;SDS011;21812;55.536;37.664;2023-05-23T03:12:26;21.58;;;11.75;;
35693;SDS011;21812;55.536;37.664;2023-05-23T03:14:54;21.98;;;12.27;;
35693;SDS011;21812;55.536;37.664;2023-05-23T03:17:20;22.05;;;13.75;;
35693;SDS011;21812;55.536;37.664;2023-05-23T03:19:46;19.35;;;11.95;;
35693;SDS011;21812;55.536;37.664;2023-05-23T03:22:11;21.60;;;11.65;;
35693;SDS011;21812;55.536;37.664;2023-05-23T03:24:37;16.95;;;8.82;;
35693;SDS011;21812;55.536;37.664;2023-05-23T03:27:03;11.25;;;8.18;;
35693;SDS011;21812;55.536;37.664;2023-05-23T03:29:29;16.92;;;9.60;;
35693;SDS011;21812;55.536;37.664;2023-05-23T03:31:56;15.27;;;11.00;;
35693;SDS011;21812;55.536;37.664;2023-05-23T03:34:21;16.92;;;8.80;;
35693;SDS011;21812;55.536;37.664;2023-05-23T03:36:48;19.15;;;9.95;;
35693;SDS011;21812;55.536;37.664;2023-05-23T03:39:14;18.77;;;9.20;;
35693;SDS011;21812;55.536;37.664;2023-05-23T03:41:40;14.23;;;9.35;;
35693;SDS011;21812;55.536;37.664;2023-05-23T03:44:05;19.17;;;10.02;;
35693;SDS011;21812;55.536;37.664;2023-05-23T03:46:32;18.10;;;8.63;;
35693;SDS011;21812;55.536;37.664;2023-05-23T03:48:58;22.17;;;10.18;;
35693;SDS011;21812;55.536;37.664;2023-05-23T03:51:24;17.52;;;9.98;;
35693;SDS011;21812;55.536;37.664;2023-05-23T03:53:50;18.80;;;8.38;;
35693;SDS011;21812;55.536;37.664;2023-05-23T03:56:16;14.40;;;8.57;;
35693;SDS011;21812;55.536;37.664;2023-05-23T03:58:41;13.85;;;9.10;;
35693;SDS011;21812;55.536;37.664;2023-05-23T04:01:11;16.80;;;8.98;;
35693;SDS011;21812;55.536;37.664;2023-05-23T04:03:38;20.52;;;9.02;;
35693;SDS011;21812;55.536;37.664;2023-05-23T04:06:05;15.77;;;9.40;;
35693;SDS011;21812;55.536;37.664;2023-05-23T04:08:32;18.83;;;10.40;;
35693;SDS011;21812;55.536;37.664;2023-05-23T04:10:59;22.60;;;9.25;;
35693;SDS011;21812;55.536;37.664;2023-05-23T04:13:27;14.68;;;8.13;;
35693;SDS011;21812;55.536;37.664;2023-05-23T04:15:53;14.85;;;7.75;;
35693;SDS011;21812;55.536;37.664;2023-05-23T04:18:22;17.73;;;7.97;;
35693;SDS011;21812;55.536;37.664;2023-05-23T04:20:48;39.70;;;13.10;;
35693;SDS011;21812;55.536;37.664;2023-05-23T04:23:14;75.22;;;21.70;;
35693;SDS011;21812;55.536;37.664;2023-05-23T04:25:43;56.83;;;18.40;;
35693;SDS011;21812;55.536;37.664;2023-05-23T04:28:14;29.48;;;11.75;;
35693;SDS011;21812;55.536;37.664;2023-05-23T04:30:42;21.65;;;9.43;;
35693;SDS011;21812;55.536;37.664;2023-05-23T04:33:08;28.35;;;9.35;;
35693;SDS011;21812;55.536;37.664;2023-05-23T04:35:34;21.17;;;8.48;;
35693;SDS011;21812;55.536;37.664;2023-05-23T04:38:04;23.88;;;7.03;;
35693;SDS011;21812;55.536;37.664;2023-05-23T04:40:30;15.43;;;6.78;;
35693;SDS011;21812;55.536;37.664;2023-05-23T04:43:12;15.15;;;5.88;;
35693;SDS011;21812;55.536;37.664;2023-05-23T04:45:47;17.05;;;6.35;;
35693;SDS011;21812;55.536;37.664;2023-05-23T04:48:36;14.95;;;6.60;;
35693;SDS011;21812;55.536;37.664;2023-05-23T04:51:02;15.70;;;6.60;;
35693;SDS011;21812;55.536;37.664;2023-05-23T04:53:41;17.50;;;6.75;;
35693;SDS011;21812;55.536;37.664;2023-05-23T04:56:09;24.90;;;6.35;;
35693;SDS011;21812;55.536;37.664;2023-05-23T04:58:37;16.77;;;7.47;;
35693;SDS011;21812;55.536;37.664;2023-05-23T05:01:06;21.80;;;7.53;;
35693;SDS011;21812;55.536;37.664;2023-05-23T05:03:34;15.15;;;5.80;;
35693;SDS011;21812;55.536;37.664;2023-05-23T05:06:01;22.30;;;5.68;;
35693;SDS011;21812;55.536;37.664;2023-05-23T05:08:27;26.15;;;6.07;;
35693;SDS011;21812;55.536;37.664;2023-05-23T05:10:53;13.43;;;4.90;;
35693;SDS011;21812;55.536;37.664;2023-05-23T05:13:20;13.52;;;4.78;;
35693;SDS011;21812;55.536;37.664;2023-05-23T05:15:50;10.23;;;6.03;;
35693;SDS011;21812;55.536;37.664;2023-05-23T05:18:18;11.82;;;5.57;;
35693;SDS011;21812;55.536;37.664;2023-05-23T05:20:44;7.88;;;4.95;;
35693;SDS011;21812;55.536;37.664;2023-05-23T05:23:10;10.15;;;5.30;;
35693;SDS011;21812;55.536;37.664;2023-05-23T05:25:36;10.25;;;4.43;;
35693;SDS011;21812;55.536;37.664;2023-05-23T05:28:03;13.10;;;4.93;;
35693;SDS011;21812;55.536;37.664;2023-05-23T05:30:33;9.32;;;4.72;;
35693;SDS011;21812;55.536;37.664;2023-05-23T05:33:01;13.25;;;4.70;;
35693;SDS011;21812;55.536;37.664;2023-05-23T05:35:32;9.55;;;5.28;;
35693;SDS011;21812;55.536;37.664;2023-05-23T05:38:05;13.40;;;5.43;;
35693;SDS011;21812;55.536;37.664;2023-05-23T05:40:32;8.30;;;5.00;;
35693;SDS011;21812;55.536;37.664;2023-05-23T05:42:59;9.65;;;4.88;;
35693;SDS011;21812;55.536;37.664;2023-05-23T05:45:25;17.95;;;5.88;;
35693;SDS011;21812;55.536;37.664;2023-05-23T05:47:51;7.25;;;4.80;;
35693;SDS011;21812;55.536;37.664;2023-05-23T05:50:19;8.50;;;4.95;;
35693;SDS011;21812;55.536;37.664;2023-05-23T05:52:45;8.68;;;4.72;;
35693;SDS011;21812;55.536;37.664;2023-05-23T05:55:12;12.20;;;4.95;;
35693;SDS011;21812;55.536;37.664;2023-05-23T05:57:41;9.18;;;4.30;;
35693;SDS011;21812;55.536;37.664;2023-05-23T06:00:11;11.45;;;4.30;;
35693;SDS011;21812;55.536;37.664;2023-05-23T06:02:45;8.52;;;4.35;;
35693;SDS011;21812;55.536;37.664;2023-05-23T06:05:13;8.75;;;3.97;;
35693;SDS011;21812;55.536;37.664;2023-05-23T06:07:46;11.73;;;4.95;;
35693;SDS011;21812;55.536;37.664;2023-05-23T06:10:13;10.98;;;4.95;;
35693;SDS011;21812;55.536;37.664;2023-05-23T06:12:38;8.10;;;4.40;;
35693;SDS011;21812;55.536;37.664;2023-05-23T06:15:05;11.98;;;5.05;;
35693;SDS011;21812;55.536;37.664;2023-05-23T06:17:32;12.95;;;4.40;;
35693;SDS011;21812;55.536;37.664;2023-05-23T06:19:58;8.45;;;4.05;;
35693;SDS011;21812;55.536;37.664;2023-05-23T06:22:24;7.65;;;4.15;;
35693;SDS011;21812;55.536;37.664;2023-05-23T06:24:50;18.10;;;4.43;;
35693;SDS011;21812;55.536;37.664;2023-05-23T06:27:16;5.88;;;4.47;;
35693;SDS011;21812;55.536;37.664;2023-05-23T06:29:42;11.75;;;4.22;;
35693;SDS011;21812;55.536;37.664;2023-05-23T06:32:07;9.27;;;4.43;;
35693;SDS011;21812;55.536;37.664;2023-05-23T06:34:33;10.02;;;4.22;;
35693;SDS011;21812;55.536;37.664;2023-05-23T06:36:59;7.75;;;3.92;;
35693;SDS011;21812;55.536;37.664;2023-05-23T06:39:25;10.05;;;4.28;;
35693;SDS011;21812;55.536;37.664;2023-05-23T06:41:50;15.05;;;4.53;;
35693;SDS011;21812;55.536;37.664;2023-05-23T06:44:16;17.85;;;5.05;;
35693;SDS011;21812;55.536;37.664;2023-05-23T06:46:42;10.93;;;4.22;;
35693;SDS011;21812;55.536;37.664;2023-05-23T06:49:11;5.57;;;3.50;;
35693;SDS011;21812;55.536;37.664;2023-05-23T06:51:37;7.35;;;3.75;;
35693;SDS011;21812;55.536;37.664;2023-05-23T06:54:03;7.63;;;4.13;;
35693;SDS011;21812;55.536;37.664;2023-05-23T06:56:30;7.80;;;4.13;;
35693;SDS011;21812;55.536;37.664;2023-05-23T06:58:57;5.15;;;3.95;;
35693;SDS011;21812;55.536;37.664;2023-05-23T07:01:23;6.57;;;3.88;;
35693;SDS011;21812;55.536;37.664;2023-05-23T07:03:49;6.22;;;3.63;;
35693;SDS011;21812;55.536;37.664;2023-05-23T07:06:16;7.45;;;4.18;;
35693;SDS011;21812;55.536;37.664;2023-05-23T07:08:42;6.75;;;3.47;;
35693;SDS011;21812;55.536;37.664;2023-05-23T07:11:09;9.15;;;4.00;;
35693;SDS011;21812;55.536;37.664;2023-05-23T07:13:38;10.43;;;4.03;;
35693;SDS011;21812;55.536;37.664;2023-05-23T07:16:04;5.68;;;4.05;;
35693;SDS011;21812;55.536;37.664;2023-05-23T07:18:33;9.52;;;4.20;;
35693;SDS011;21812;55.536;37.664;2023-05-23T07:20:58;6.15;;;3.42;;
35693;SDS011;21812;55.536;37.664;2023-05-23T07:23:24;8.38;;;4.22;;
35693;SDS011;21812;55.536;37.664;2023-05-23T07:25:50;7.82;;;4.00;;
35693;SDS011;21812;55.536;37.664;2023-05-23T07:28:23;8.50;;;4.20;;
35693;SDS011;21812;55.536;37.664;2023-05-23T07:30:50;10.43;;;5.10;;
35693;SDS011;21812;55.536;37.664;2023-05-23T07:33:17;9.48;;;4.60;;
35693;SDS011;21812;55.536;37.664;2023-05-23T07:35:44;8.50;;;3.88;;
35693;SDS011;21812;55.536;37.664;2023-05-23T07:38:10;8.15;;;4.03;;
35693;SDS011;21812;55.536;37.664;2023-05-23T07:40:36;9.25;;;3.22;;
35693;SDS011;21812;55.536;37.664;2023-05-23T07:43:04;8.50;;;3.70;;
35693;SDS011;21812;55.536;37.664;2023-05-23T07:45:30;6.38;;;3.28;;
35693;SDS011;21812;55.536;37.664;2023-05-23T07:47:57;8.43;;;4.10;;
35693;SDS011;21812;55.536;37.664;2023-05-23T07:50:22;7.90;;;3.70;;
35693;SDS011;21812;55.536;37.664;2023-05-23T07:52:49;8.48;;;3.47;;
35693;SDS011;21812;55.536;37.664;2023-05-23T07:55:20;4.32;;;3.17;;
35693;SDS011;21812;55.536;37.664;2023-05-23T07:57:46;7.65;;;3.03;;
35693;SDS011;21812;55.536;37.664;2023-05-23T08:00:12;8.38;;;4.05;;
35693;SDS011;21812;55.536;37.664;2023-05-23T08:02:42;6.25;;;3.15;;
35693;SDS011;21812;55.536;37.664;2023-05-23T08:05:14;5.95;;;3.30;;
35693;SDS011;21812;55.536;37.664;2023-05-23T08:07:41;5.20;;;2.50;;
35693;SDS011;21812;55.536;37.664;2023-05-23T08:10:09;11.00;;;2.33;;
35693;SDS011;21812;55.536;37.664;2023-05-23T08:12:37;6.18;;;3.47;;
35693;SDS011;21812;55.536;37.664;2023-05-23T08:17:50;8.68;;;3.20;;
35693;SDS011;21812;55.536;37.664;2023-05-23T08:20:16;6.45;;;3.50;;
35693;SDS011;21812;55.536;37.664;2023-05-23T08:22:44;8.98;;;3.92;;
35693;SDS011;21812;55.536;37.664;2023-05-23T08:25:10;5.65;;;3.08;;
35693;SDS011;21812;55.536;37.664;2023-05-23T08:27:38;11.25;;;2.95;;
35693;SDS011;21812;55.536;37.664;2023-05-23T08:30:17;12.25;;;3.30;;
35693;SDS011;21812;55.536;37.664;2023-05-23T08:32:43;6.13;;;2.85;;
35693;SDS011;21812;55.536;37.664;2023-05-23T08:35:10;8.02;;;3.53;;
35693;SDS011;21812;55.536;37.664;2023-05-23T08:37:37;4.68;;;3.40;;
35693;SDS011;21812;55.536;37.664;2023-05-23T08:40:03;8.10;;;3.08;;
35693;SDS011;21812;55.536;37.664;2023-05-23T08:42:41;9.90;;;3.35;;
35693;SDS011;21812;55.536;37.664;2023-05-23T08:45:09;6.57;;;3.88;;
35693;SDS011;21812;55.536;37.664;2023-05-23T08:47:38;5.93;;;2.92;;
35693;SDS011;21812;55.536;37.664;2023-05-23T08:50:11;5.47;;;3.08;;
35693;SDS011;21812;55.536;37.664;2023-05-23T08:52:54;10.27;;;4.32;;
35693;SDS011;21812;55.536;37.664;2023-05-23T08:55:28;8.38;;;3.28;;
35693;SDS011;21812;55.536;37.664;2023-05-23T08:57:56;10.88;;;4.03;;
35693;SDS011;21812;55.536;37.664;2023-05-23T09:00:50;11.25;;;3.55;;
35693;SDS011;21812;55.536;37.664;2023-05-23T09:03:18;5.10;;;3.75;;
35693;SDS011;21812;55.536;37.664;2023-05-23T09:06:08;8.80;;;4.35;;
35693;SDS011;21812;55.536;37.664;2023-05-23T09:08:36;11.13;;;4.45;;
35693;SDS011;21812;55.536;37.664;2023-05-23T09:11:02;7.93;;;4.60;;
35693;SDS011;21812;55.536;37.664;2023-05-23T09:13:33;6.30;;;4.90;;
35693;SDS011;21812;55.536;37.664;2023-05-23T09:16:08;6.47;;;3.65;;
35693;SDS011;21812;55.536;37.664;2023-05-23T09:18:46;7.30;;;4.22;;
35693;SDS011;21812;55.536;37.664;2023-05-23T09:21:14;7.45;;;4.60;;
35693;SDS011;21812;55.536;37.664;2023-05-23T09:23:49;5.80;;;4.38;;
35693;SDS011;21812;55.536;37.664;2023-05-23T09:26:16;9.48;;;4.40;;
35693;SDS011;21812;55.536;37.664;2023-05-23T09:28:42;14.88;;;4.95;;
35693;SDS011;21812;55.536;37.664;2023-05-23T09:31:09;7.75;;;4.78;;
35693;SDS011;21812;55.536;37.664;2023-05-23T09:33:48;8.48;;;4.20;;
35693;SDS011;21812;55.536;37.664;2023-05-23T09:36:16;6.72;;;4.20;;
35693;SDS011;21812;55.536;37.664;2023-05-23T09:38:46;11.93;;;4.32;;
35693;SDS011;21812;55.536;37.664;2023-05-23T09:41:13;7.20;;;4.70;;
35693;SDS011;21812;55.536;37.664;2023-05-23T09:43:48;7.53;;;4.25;;
35693;SDS011;21812;55.536;37.664;2023-05-23T09:46:21;8.90;;;4.65;;
35693;SDS011;21812;55.536;37.664;2023-05-23T09:48:52;6.18;;;4.20;;
35693;SDS011;21812;55.536;37.664;2023-05-23T09:51:20;7.82;;;4.55;;
35693;SDS011;21812;55.536;37.664;2023-05-23T09:53:48;6.45;;;3.83;;
35693;SDS011;21812;55.536;37.664;2023-05-23T09:56:17;6.93;;;4.53;;
35693;SDS011;21812;55.536;37.664;2023-05-23T09:58:45;12.77;;;4.80;;
35693;SDS011;21812;55.536;37.664;2023-05-23T10:01:12;11.25;;;4.82;;
35693;SDS011;21812;55.536;37.664;2023-05-23T10:06:09;7.15;;;4.55;;
35693;SDS011;21812;55.536;37.664;2023-05-23T10:08:43;5.40;;;3.80;;
35693;SDS011;21812;55.536;37.664;2023-05-23T10:13:40;6.75;;;3.33;;
35693;SDS011;21812;55.536;37.664;2023-05-23T10:18:42;3.67;;;2.50;;
35693;SDS011;21812;55.536;37.664;2023-05-23T10:21:09;4.82;;;3.05;;
35693;SDS011;21812;55.536;37.664;2023-05-23T10:23:38;3.80;;;2.80;;
35693;SDS011;21812;55.536;37.664;2023-05-23T10:26:05;6.00;;;3.53;;
35693;SDS011;21812;55.536;37.664;2023-05-23T10:28:32;6.63;;;3.53;;
35693;SDS011;21812;55.536;37.664;2023-05-23T10:30:58;7.70;;;2.78;;
35693;SDS011;21812;55.536;37.664;2023-05-23T10:33:27;6.55;;;3.50;;
35693;SDS011;21812;55.536;37.664;2023-05-23T10:36:01;10.82;;;3.53;;
35693;SDS011;21812;55.536;37.664;2023-05-23T10:38:40;3.50;;;2.80;;
35693;SDS011;21812;55.536;37.664;2023-05-23T10:41:11;7.88;;;3.40;;
35693;SDS011;21812;55.536;37.664;2023-05-23T10:43:47;6.40;;;3.50;;
35693;SDS011;21812;55.536;37.664;2023-05-23T10:49:41;7.65;;;3.47;;
35693;SDS011;21812;55.536;37.664;2023-05-23T10:52:12;6.25;;;3.88;;
35693;SDS011;21812;55.536;37.664;2023-05-23T10:54:44;4.70;;;3.70;;
35693;SDS011;21812;55.536;37.664;2023-05-23T10:57:15;7.30;;;4.55;;
35693;SDS011;21812;55.536;37.664;2023-05-23T10:59:42;7.82;;;4.45;;
35693;SDS011;21812;55.536;37.664;2023-05-23T11:02:13;6.03;;;4.00;;
35693;SDS011;21812;55.536;37.664;2023-05-23T11:04:43;9.95;;;5.13;;
35693;SDS011;21812;55.536;37.664;2023-05-23T11:07:28;6.90;;;4.57;;
35693;SDS011;21812;55.536;37.664;2023-05-23T11:10:10;7.68;;;5.22;;
35693;SDS011;21812;55.536;37.664;2023-05-23T11:12:42;8.93;;;5.57;;
35693;SDS011;21812;55.536;37.664;2023-05-23T11:17:51;7.70;;;4.97;;
35693;SDS011;21812;55.536;37.664;2023-05-23T11:20:18;8.02;;;4.78;;
35693;SDS011;21812;55.536;37.664;2023-05-23T11:23:01;5.93;;;4.55;;
35693;SDS011;21812;55.536;37.664;2023-05-23T11:25:40;11.23;;;5.65;;
35693;SDS011;21812;55.536;37.664;2023-05-23T11:28:06;9.80;;;5.28;;
35693;SDS011;21812;55.536;37.664;2023-05-23T11:30:32;10.27;;;5.65;;
35693;SDS011;21812;55.536;37.664;2023-05-23T11:33:05;7.15;;;5.20;;
35693;SDS011;21812;55.536;37.664;2023-05-23T11:35:36;7.22;;;5.10;;
35693;SDS011;21812;55.536;37.664;2023-05-23T11:38:05;7.75;;;4.88;;
35693;SDS011;21812;55.536;37.664;2023-05-23T11:40:32;6.80;;;4.93;;
35693;SDS011;21812;55.536;37.664;2023-05-23T11:43:00;7.45;;;4.85;;
35693;SDS011;21812;55.536;37.664;2023-05-23T11:45:28;7.75;;;5.28;;
35693;SDS011;21812;55.536;37.664;2023-05-23T11:47:56;6.25;;;4.85;;
35693;SDS011;21812;55.536;37.664;2023-05-23T11:50:22;9.38;;;5.03;;
35693;SDS011;21812;55.536;37.664;2023-05-23T11:52:50;6.30;;;5.45;;
35693;SDS011;21812;55.536;37.664;2023-05-23T11:55:18;9.43;;;6.22;;
35693;SDS011;21812;55.536;37.664;2023-05-23T11:57:47;8.35;;;5.60;;
35693;SDS011;21812;55.536;37.664;2023-05-23T12:00:14;13.48;;;7.65;;
35693;SDS011;21812;55.536;37.664;2023-05-23T12:02:41;9.23;;;5.88;;
35693;SDS011;21812;55.536;37.664;2023-05-23T12:05:08;8.25;;;5.65;;
35693;SDS011;21812;55.536;37.664;2023-05-23T12:07:34;8.63;;;5.00;;
35693;SDS011;21812;55.536;37.664;2023-05-23T12:10:02;8.18;;;5.80;;
35693;SDS011;21812;55.536;37.664;2023-05-23T12:12:30;11.23;;;6.40;;
35693;SDS011;21812;55.536;37.664;2023-05-23T12:14:56;8.38;;;5.95;;
35693;SDS011;21812;55.536;37.664;2023-05-23T12:17:22;8.07;;;4.72;;
35693;SDS011;21812;55.536;37.664;2023-05-23T12:19:48;10.15;;;6.20;;
35693;SDS011;21812;55.536;37.664;2023-05-23T12:22:13;8.75;;;6.50;;
35693;SDS011;21812;55.536;37.664;2023-05-23T12:24:45;10.07;;;6.35;;
35693;SDS011;21812;55.536;37.664;2023-05-23T12:27:11;10.38;;;5.90;;
35693;SDS011;21812;55.536;37.664;2023-05-23T12:29:37;8.75;;;6.30;;
35693;SDS011;21812;55.536;37.664;2023-05-23T12:32:04;15.32;;;8.35;;
35693;SDS011;21812;55.536;37.664;2023-05-23T12:34:31;13.73;;;6.78;;
35693;SDS011;21812;55.536;37.664;2023-05-23T12:36:58;11.05;;;7.18;;
35693;SDS011;21812;55.536;37.664;2023-05-23T12:39:26;11.68;;;6.05;;
35693;SDS011;21812;55.536;37.664;2023-05-23T12:41:53;8.95;;;6.35;;
35693;SDS011;21812;55.536;37.664;2023-05-23T12:44:22;7.80;;;6.63;;
35693;SDS011;21812;55.536;37.664;2023-05-23T12:46:54;13.07;;;7.85;;
35693;SDS011;21812;55.536;37.664;2023-05-23T12:49:19;13.15;;;7.25;;
35693;SDS011;21812;55.536;37.664;2023-05-23T12:51:46;8.65;;;6.57;;
35693;SDS011;21812;55.536;37.664;2023-05-23T12:54:11;10.02;;;6.53;;
35693;SDS011;21812;55.536;37.664;2023-05-23T12:56:37;17.48;;;6.05;;
35693;SDS011;21812;55.536;37.664;2023-05-23T12:59:03;10.63;;;6.60;;
35693;SDS011;21812;55.536;37.664;2023-05-23T13:01:29;8.85;;;5.68;;
35693;SDS011;21812;55.536;37.664;2023-05-23T13:03:55;9.10;;;6.13;;
35693;SDS011;21812;55.536;37.664;2023-05-23T13:06:21;13.45;;;5.95;;
35693;SDS011;21812;55.536;37.664;2023-05-23T13:08:46;12.48;;;6.97;;
35693;SDS011;21812;55.536;37.664;2023-05-23T13:11:14;12.90;;;7.72;;
35693;SDS011;21812;55.536;37.664;2023-05-23T13:13:40;9.93;;;7.05;;
35693;SDS011;21812;55.536;37.664;2023-05-23T13:16:06;8.57;;;6.47;;
35693;SDS011;21812;55.536;37.664;2023-05-23T13:18:32;12.68;;;6.57;;
35693;SDS011;21812;55.536;37.664;2023-05-23T13:20:58;9.98;;;7.35;;
35693;SDS011;21812;55.536;37.664;2023-05-23T13:23:23;15.02;;;7.88;;
35693;SDS011;21812;55.536;37.664;2023-05-23T13:25:50;9.98;;;7.20;;
35693;SDS011;21812;55.536;37.664;2023-05-23T13:28:16;13.25;;;8.05;;
35693;SDS011;21812;55.536;37.664;2023-05-23T13:30:42;11.00;;;7.22;;
35693;SDS011;21812;55.536;37.664;2023-05-23T13:33:08;11.65;;;7.38;;
35693;SDS011;21812;55.536;37.664;2023-05-23T13:35:33;12.07;;;7.55;;
35693;SDS011;21812;55.536;37.664;2023-05-23T13:37:59;12.90;;;8.05;;
35693;SDS011;21812;55.536;37.664;2023-05-23T13:40:25;11.45;;;8.13;;
35693;SDS011;21812;55.536;37.664;2023-05-23T13:42:50;14.18;;;8.52;;
35693;SDS011;21812;55.536;37.664;2023-05-23T13:45:17;9.10;;;7.63;;
35693;SDS011;21812;55.536;37.664;2023-05-23T13:47:44;13.05;;;8.85;;
35693;SDS011;21812;55.536;37.664;2023-05-23T13:50:10;14.73;;;8.38;;
35693;SDS011;21812;55.536;37.664;2023-05-23T13:52:36;11.63;;;9.15;;
35693;SDS011;21812;55.536;37.664;2023-05-23T13:55:02;18.13;;;9.02;;
35693;SDS011;21812;55.536;37.664;2023-05-23T13:57:29;13.45;;;8.80;;
35693;SDS011;21812;55.536;37.664;2023-05-23T13:59:54;15.85;;;9.32;;
35693;SDS011;21812;55.536;37.664;2023-05-23T14:02:20;12.52;;;7.68;;
35693;SDS011;21812;55.536;37.664;2023-05-23T14:04:47;15.95;;;8.85;;
35693;SDS011;21812;55.536;37.664;2023-05-23T14:07:14;16.58;;;9.18;;
35693;SDS011;21812;55.536;37.664;2023-05-23T14:09:41;16.35;;;8.68;;
35693;SDS011;21812;55.536;37.664;2023-05-23T14:12:06;16.08;;;9.02;;
35693;SDS011;21812;55.536;37.664;2023-05-23T14:14:32;11.00;;;9.02;;
35693;SDS011;21812;55.536;37.664;2023-05-23T14:16:58;10.27;;;8.13;;
35693;SDS011;21812;55.536;37.664;2023-05-23T14:19:24;18.50;;;8.82;;
35693;SDS011;21812;55.536;37.664;2023-05-23T14:21:50;13.82;;;9.68;;
35693;SDS011;21812;55.536;37.664;2023-05-23T14:24:15;19.15;;;10.80;;
35693;SDS011;21812;55.536;37.664;2023-05-23T14:26:41;16.88;;;10.50;;
35693;SDS011;21812;55.536;37.664;2023-05-23T14:29:07;17.05;;;10.00;;
35693;SDS011;21812;55.536;37.664;2023-05-23T14:31:32;12.27;;;9.13;;
35693;SDS011;21812;55.536;37.664;2023-05-23T14:33:58;19.85;;;13.15;;
35693;SDS011;21812;55.536;37.664;2023-05-23T14:36:24;23.77;;;12.65;;
35693;SDS011;21812;55.536;37.664;2023-05-23T14:38:50;14.65;;;9.48;;
35693;SDS011;21812;55.536;37.664;2023-05-23T14:41:16;21.13;;;11.75;;
35693;SDS011;21812;55.536;37.664;2023-05-23T14:43:42;13.02;;;11.55;;
35693;SDS011;21812;55.536;37.664;2023-05-23T14:46:08;19.52;;;12.95;;
35693;SDS011;21812;55.536;37.664;2023-05-23T14:48:34;17.40;;;9.80;;
35693;SDS011;21812;55.536;37.664;2023-05-23T14:51:00;15.00;;;10.02;;